Orange, CA (92856)

1:39 AM PDT on September 03, 2015 (GMT -0700)
Old Town Orange | | Change Station
CLOSE
Current Station
Personal Weather Station
Location: Orange, CA
Elevation: 213 ft
Nearby Weather Stations

Elev 213 ft 33.78 °N, 117.85 °W | Updated 28 seconds ago

Partly Cloudy
Partly Cloudy
67.3 °F
Feels Like 67.3 °F
N
0.0
Wind Variable Wind from SSW
Gusts 1.0 mph

Today
High -- | Low -- °F
--% Chance of Precip.
Yesterday
High -- | Low -- °F
Precip. -- in
6:26 AM 7:14 PM
Waning Gibbous, 72% visible
Pressure 29.93 in
Visibility 10.0 miles
Clouds Scattered Clouds 2300 ft
Dew Point 60 °F
Humidity 77%
Rainfall 0.00 in
Snow Depth Not available.
UV 0 out of 12
Pollen 7.50 out of 12
Air Quality Not available.
Flu Activity Not available.
SPECI KSNA 030817Z AUTO 13004KT 10SM SCT023 19/15 A2993 RMK AO2 TSNO
Pressure 29.93 in
Visibility 10.0 miles
Clouds Scattered Clouds 2300 ft
Dew Point 60 °F
Humidity 77%
Rainfall 0.00 in
Snow Depth Not available.
UV 0 out of 12
Pollen 7.50 out of 12
Air Quality Not available.
Flu Activity Not available.
SPECI KSNA 030817Z AUTO 13004KT 10SM SCT023 19/15 A2993 RMK AO2 TSNO

10-Day Weather Forecast

×

Almanac

Astronomy

Sep. 03, 2015 Rise Set
Actual Time
Civil Twilight
Nautical Twilight
Astronomical Twilight
Moon
Length of Visible Light
Length of Day
Tomorrow will be .
, % of the Moon is Illuminated

Today's Extremes

State Highs State Lows

Community

WunderPhotos

Upload Photos

1,851,919 photos uploaded!

WunderBlogs® & News

Nearby

Air Quality

  Air Quality AQ Index Pollutant
Not available.

Snow Depth

Station Depth Elevation

Earthquake Activity

City Distance Mag. Time & Date
Minimum magnitude displayed is 2.5.

Coastal Water Temperatures

Place Temperature

Stations

Nearby Weather Stations

Station Location Temp. Windchill Dew Point Humidity Wind Precip. Elev Updated Type